AirNav   Everest Fuels
 
 1034 users online  

2NH1 Foote Heliport
Merrimack, New Hampshire, USA

GOING TO MERRIMACK?


FAA INFORMATION EFFECTIVE 02 JANUARY 2020

Location

FAA Identifier: 2NH1
Lat/Long: 42-51-36.5000N 071-29-16.2000W
42-51.608333N 071-29.270000W
42.8601389,-71.4878333
(estimated)
Elevation: 235 ft. / 72 m (estimated)
From city: 3 miles NE of MERRIMACK, NH
Time zone: UTC -5 (UTC -4 during Daylight Saving Time)
Zip code: 03054

Heliport Operations

Heliport use: Private use. Permission required prior to landing
Activation date: 05/2015
Control tower: no
ARTCC: BOSTON CENTER
FSS: BANGOR FLIGHT SERVICE STATION
Attendance: UNATT
Segmented circle: no

Heliport Communications

WX AWOS-3PT at ASH (5 nm S): 125.1 (603-578-0473)
WX ASOS at MHT (5 nm NE): 119.55 (603-621-1766)
WX ASOS at LWM (18 nm SE): PHONE 978-687-8017

Nearby radio navigation aids

VOR radial/distance  VOR name  Freq  Var
MHTr279/5.2MANCHESTER VOR/DME114.4015W
LWMr308/18.7LAWRENCE VOR/DME112.5015W
CONr185/21.9CONCORD VOR/DME112.9015W
GDMr067/31.4GARDNER VOR/DME110.6014W
PSMr261/31.8PEASE VOR/DME116.5016W
EENr098/35.6KEENE VORTAC109.4014W
BOSr340/37.3BOSTON VOR/DME112.7016W

 
NDB name  Hdg/Dist  Freq  Var  ID
FITZY113/1.820915WMJ -- .---
ROLLINS249/36.126016WESG . ... --.

Heliport Services

Runway Information

Helipad H1

Dimensions: 100 x 100 ft. / 30 x 30 m
Surface: concrete
Traffic pattern: leftleft

Heliport Ownership and Management from official FAA records

Ownership: Privately-owned
Owner: JOSEPH R. BRIGHAM
53 TURBINE WAY
MERRIMACK, NH 03054
Phone 603-496-7750
Manager: JOSEPH R. BRIGHAM
53 TURBINE WAY
MERRIMACK, NH 03054
Phone 603-496-7750

Heliport Operational Statistics

Aircraft based on the field: 2
Helicopters: 2
    

Additional Remarks

PPR.
FOR CD CTC BOSTON APCH AT 603-594-5551.

Instrument Procedures

There are no published instrument procedures at 2NH1.

Some nearby airports with instrument procedures:

KASH - Boire Field Airport (5 nm S)
KMHT - Manchester Airport (5 nm NE)
KLWM - Lawrence Municipal Airport (18 nm SE)
KCON - Concord Municipal Airport (21 nm N)
KFIT - Fitchburg Municipal Airport (22 nm SW)
 
Loc | Ops | Rwys | IFR | FBO | Links
Com | Nav | Svcs | Stats | Notes
Aerial photo
No photo
 
Airport distance calculator
Flying to Foote Heliport? Find the distance to fly.

From to 2NH1

Sunrise and sunset
Times for 26-Jan-2020
 Local
(UTC-5)
 Zulu
(UTC)
Morning civil twilight06:3711:37
Sunrise07:0812:08
Sunset16:5021:50
Evening civil twilight17:2022:20

Current date and time
Zulu (UTC)  27-Jan-2020 01:36:14
Local (UTC-5)  26-Jan-2020 20:36:14
 
METAR
KMHT 
5nm NE 
270053Z 23004KT 10SM FEW050 03/M03 A2964 RMK AO2 SLP055 T00281033
KASH 
6nm S 
270056Z VRB03KT 10SM SCT044 02/M02 A2967 RMK AO2 SLP054 T00221017
KLWM 
18nm SE 
270054Z 23009KT 10SM CLR 03/M03 A2968 RMK AO2 SLP053 T00281028 $
TAF
KMHT 
5nm NE 
261720Z 2618/2718 28010KT P6SM FEW030 FM270200 22003KT P6SM BKN100
NOTAMs
Click for the latest NOTAMs
NOTAMs are issued by the DoD/FAA and will open in a separate window not controlled by AirNav.

 

 
 

Would you like to see your business listed on this page?

 If your business provides an interesting product or service to pilots, flight crews, aircraft, or users of the Foote Heliport, you should consider listing it here.  To start the listing process, click on the button below
 
Add a business
 

Other Pages about Foote Heliport

Update a link
 
Copyright © AirNav, LLC. All rights reserved. Privacy Policy  Contact